sensor_id;sensor_type;location;lat;lon;timestamp;P1;durP1;ratioP1;P2;durP2;ratioP2
52618;SDS011;38513;53.234;6.568;2023-04-19T00:00:55;12.05;;;7.55;;
52618;SDS011;38513;53.234;6.568;2023-04-19T00:03:21;13.77;;;7.90;;
52618;SDS011;38513;53.234;6.568;2023-04-19T00:05:49;12.55;;;7.72;;
52618;SDS011;38513;53.234;6.568;2023-04-19T00:08:17;11.95;;;7.93;;
52618;SDS011;38513;53.234;6.568;2023-04-19T00:10:43;12.32;;;7.43;;
52618;SDS011;38513;53.234;6.568;2023-04-19T00:13:10;14.68;;;8.18;;
52618;SDS011;38513;53.234;6.568;2023-04-19T00:15:36;12.25;;;7.90;;
52618;SDS011;38513;53.234;6.568;2023-04-19T00:18:02;11.32;;;7.60;;
52618;SDS011;38513;53.234;6.568;2023-04-19T00:20:29;12.82;;;8.10;;
52618;SDS011;38513;53.234;6.568;2023-04-19T00:22:55;12.77;;;8.43;;
52618;SDS011;38513;53.234;6.568;2023-04-19T00:25:24;13.45;;;8.30;;
52618;SDS011;38513;53.234;6.568;2023-04-19T00:27:51;12.13;;;8.25;;
52618;SDS011;38513;53.234;6.568;2023-04-19T00:30:17;13.18;;;8.80;;
52618;SDS011;38513;53.234;6.568;2023-04-19T00:32:43;14.50;;;8.52;;
52618;SDS011;38513;53.234;6.568;2023-04-19T00:35:09;13.07;;;8.55;;
52618;SDS011;38513;53.234;6.568;2023-04-19T00:37:35;13.25;;;8.85;;
52618;SDS011;38513;53.234;6.568;2023-04-19T00:40:01;12.77;;;8.30;;
52618;SDS011;38513;53.234;6.568;2023-04-19T00:42:28;13.15;;;8.85;;
52618;SDS011;38513;53.234;6.568;2023-04-19T00:44:54;14.90;;;8.77;;
52618;SDS011;38513;53.234;6.568;2023-04-19T00:47:20;11.95;;;8.38;;
52618;SDS011;38513;53.234;6.568;2023-04-19T00:49:46;12.57;;;8.20;;
52618;SDS011;38513;53.234;6.568;2023-04-19T00:52:12;13.85;;;9.07;;
52618;SDS011;38513;53.234;6.568;2023-04-19T00:54:42;13.18;;;8.95;;
52618;SDS011;38513;53.234;6.568;2023-04-19T00:57:08;15.30;;;8.73;;
52618;SDS011;38513;53.234;6.568;2023-04-19T00:59:35;14.65;;;8.70;;
52618;SDS011;38513;53.234;6.568;2023-04-19T01:02:08;14.10;;;9.60;;
52618;SDS011;38513;53.234;6.568;2023-04-19T01:04:34;13.88;;;9.13;;
52618;SDS011;38513;53.234;6.568;2023-04-19T01:07:00;14.80;;;9.57;;
52618;SDS011;38513;53.234;6.568;2023-04-19T01:09:27;14.10;;;9.35;;
52618;SDS011;38513;53.234;6.568;2023-04-19T01:11:53;15.52;;;10.10;;
52618;SDS011;38513;53.234;6.568;2023-04-19T01:14:23;14.57;;;10.38;;
52618;SDS011;38513;53.234;6.568;2023-04-19T01:16:49;15.63;;;10.05;;
52618;SDS011;38513;53.234;6.568;2023-04-19T01:19:15;14.80;;;10.23;;
52618;SDS011;38513;53.234;6.568;2023-04-19T01:21:42;16.42;;;10.80;;
52618;SDS011;38513;53.234;6.568;2023-04-19T01:24:09;15.35;;;11.23;;
52618;SDS011;38513;53.234;6.568;2023-04-19T01:26:35;16.02;;;10.75;;
52618;SDS011;38513;53.234;6.568;2023-04-19T01:29:01;14.50;;;10.73;;
52618;SDS011;38513;53.234;6.568;2023-04-19T01:31:27;18.48;;;11.43;;
52618;SDS011;38513;53.234;6.568;2023-04-19T01:33:53;16.25;;;10.77;;
52618;SDS011;38513;53.234;6.568;2023-04-19T01:36:20;16.20;;;10.68;;
52618;SDS011;38513;53.234;6.568;2023-04-19T01:38:46;16.25;;;10.95;;
52618;SDS011;38513;53.234;6.568;2023-04-19T01:41:15;16.90;;;11.70;;
52618;SDS011;38513;53.234;6.568;2023-04-19T01:43:41;16.52;;;11.63;;
52618;SDS011;38513;53.234;6.568;2023-04-19T01:46:07;16.08;;;12.00;;
52618;SDS011;38513;53.234;6.568;2023-04-19T01:48:42;17.48;;;11.48;;
52618;SDS011;38513;53.234;6.568;2023-04-19T01:51:08;16.75;;;11.32;;
52618;SDS011;38513;53.234;6.568;2023-04-19T01:53:35;16.95;;;11.88;;
52618;SDS011;38513;53.234;6.568;2023-04-19T01:56:01;17.70;;;11.98;;
52618;SDS011;38513;53.234;6.568;2023-04-19T01:58:27;17.27;;;11.32;;
52618;SDS011;38513;53.234;6.568;2023-04-19T02:00:53;17.67;;;11.60;;
52618;SDS011;38513;53.234;6.568;2023-04-19T02:03:19;16.65;;;11.57;;
52618;SDS011;38513;53.234;6.568;2023-04-19T02:05:45;16.08;;;11.38;;
52618;SDS011;38513;53.234;6.568;2023-04-19T02:08:11;18.88;;;11.48;;
52618;SDS011;38513;53.234;6.568;2023-04-19T02:10:37;16.15;;;10.68;;
52618;SDS011;38513;53.234;6.568;2023-04-19T02:13:06;14.40;;;10.50;;
52618;SDS011;38513;53.234;6.568;2023-04-19T02:15:32;17.70;;;11.10;;
52618;SDS011;38513;53.234;6.568;2023-04-19T02:17:58;15.43;;;10.48;;
52618;SDS011;38513;53.234;6.568;2023-04-19T02:20:24;16.42;;;10.88;;
52618;SDS011;38513;53.234;6.568;2023-04-19T02:22:51;15.13;;;10.00;;
52618;SDS011;38513;53.234;6.568;2023-04-19T02:25:17;14.20;;;9.15;;
52618;SDS011;38513;53.234;6.568;2023-04-19T02:27:43;13.57;;;8.73;;
52618;SDS011;38513;53.234;6.568;2023-04-19T02:30:09;14.32;;;8.57;;
52618;SDS011;38513;53.234;6.568;2023-04-19T02:32:42;13.73;;;8.13;;
52618;SDS011;38513;53.234;6.568;2023-04-19T02:35:08;11.80;;;7.07;;
52618;SDS011;38513;53.234;6.568;2023-04-19T02:37:34;12.27;;;6.95;;
52618;SDS011;38513;53.234;6.568;2023-04-19T02:40:00;11.57;;;6.82;;
52618;SDS011;38513;53.234;6.568;2023-04-19T02:42:29;13.07;;;7.03;;
52618;SDS011;38513;53.234;6.568;2023-04-19T02:44:58;11.80;;;6.80;;
52618;SDS011;38513;53.234;6.568;2023-04-19T02:47:24;12.02;;;7.07;;
52618;SDS011;38513;53.234;6.568;2023-04-19T02:49:50;12.32;;;6.50;;
52618;SDS011;38513;53.234;6.568;2023-04-19T02:52:17;11.43;;;6.55;;
52618;SDS011;38513;53.234;6.568;2023-04-19T02:54:43;10.95;;;6.30;;
52618;SDS011;38513;53.234;6.568;2023-04-19T02:57:10;11.57;;;6.50;;
52618;SDS011;38513;53.234;6.568;2023-04-19T02:59:36;12.60;;;6.72;;
52618;SDS011;38513;53.234;6.568;2023-04-19T03:02:02;11.95;;;6.40;;
52618;SDS011;38513;53.234;6.568;2023-04-19T03:04:28;10.88;;;6.22;;
52618;SDS011;38513;53.234;6.568;2023-04-19T03:06:55;11.63;;;5.90;;
52618;SDS011;38513;53.234;6.568;2023-04-19T03:09:21;11.25;;;6.47;;
52618;SDS011;38513;53.234;6.568;2023-04-19T03:11:47;9.60;;;6.10;;
52618;SDS011;38513;53.234;6.568;2023-04-19T03:14:14;10.57;;;6.13;;
52618;SDS011;38513;53.234;6.568;2023-04-19T03:16:40;10.88;;;6.25;;
52618;SDS011;38513;53.234;6.568;2023-04-19T03:19:06;11.95;;;6.55;;
52618;SDS011;38513;53.234;6.568;2023-04-19T03:21:35;10.48;;;6.47;;
52618;SDS011;38513;53.234;6.568;2023-04-19T03:24:01;12.45;;;7.07;;
52618;SDS011;38513;53.234;6.568;2023-04-19T03:26:27;10.45;;;6.78;;
52618;SDS011;38513;53.234;6.568;2023-04-19T03:28:56;12.10;;;6.40;;
52618;SDS011;38513;53.234;6.568;2023-04-19T03:31:22;11.82;;;6.88;;
52618;SDS011;38513;53.234;6.568;2023-04-19T03:33:51;10.95;;;6.45;;
52618;SDS011;38513;53.234;6.568;2023-04-19T03:36:17;13.32;;;6.97;;
52618;SDS011;38513;53.234;6.568;2023-04-19T03:38:43;11.95;;;6.50;;
52618;SDS011;38513;53.234;6.568;2023-04-19T03:41:16;11.57;;;6.78;;
52618;SDS011;38513;53.234;6.568;2023-04-19T03:43:42;12.50;;;6.75;;
52618;SDS011;38513;53.234;6.568;2023-04-19T03:46:09;12.43;;;7.00;;
52618;SDS011;38513;53.234;6.568;2023-04-19T03:48:35;11.82;;;7.03;;
52618;SDS011;38513;53.234;6.568;2023-04-19T03:51:01;10.25;;;6.72;;
52618;SDS011;38513;53.234;6.568;2023-04-19T03:53:27;11.85;;;7.07;;
52618;SDS011;38513;53.234;6.568;2023-04-19T03:55:59;11.90;;;7.30;;
52618;SDS011;38513;53.234;6.568;2023-04-19T03:58:26;12.05;;;7.38;;
52618;SDS011;38513;53.234;6.568;2023-04-19T04:00:52;10.77;;;6.82;;
52618;SDS011;38513;53.234;6.568;2023-04-19T04:03:18;11.88;;;7.18;;
52618;SDS011;38513;53.234;6.568;2023-04-19T04:05:44;11.45;;;7.72;;
52618;SDS011;38513;53.234;6.568;2023-04-19T04:08:10;12.55;;;7.85;;
52618;SDS011;38513;53.234;6.568;2023-04-19T04:10:38;13.35;;;8.25;;
52618;SDS011;38513;53.234;6.568;2023-04-19T04:13:04;14.07;;;8.50;;
52618;SDS011;38513;53.234;6.568;2023-04-19T04:15:30;12.63;;;8.40;;
52618;SDS011;38513;53.234;6.568;2023-04-19T04:17:56;14.80;;;8.82;;
52618;SDS011;38513;53.234;6.568;2023-04-19T04:20:22;14.75;;;8.50;;
52618;SDS011;38513;53.234;6.568;2023-04-19T04:22:48;12.20;;;8.03;;
52618;SDS011;38513;53.234;6.568;2023-04-19T04:25:14;13.40;;;8.02;;
52618;SDS011;38513;53.234;6.568;2023-04-19T04:27:41;14.30;;;8.30;;
52618;SDS011;38513;53.234;6.568;2023-04-19T04:30:08;12.65;;;8.88;;
52618;SDS011;38513;53.234;6.568;2023-04-19T04:32:35;11.68;;;7.90;;
52618;SDS011;38513;53.234;6.568;2023-04-19T04:35:05;13.10;;;8.38;;
52618;SDS011;38513;53.234;6.568;2023-04-19T04:37:32;13.57;;;8.18;;
52618;SDS011;38513;53.234;6.568;2023-04-19T04:39:59;11.85;;;7.78;;
52618;SDS011;38513;53.234;6.568;2023-04-19T04:42:25;14.43;;;8.32;;
52618;SDS011;38513;53.234;6.568;2023-04-19T04:44:51;12.35;;;7.63;;
52618;SDS011;38513;53.234;6.568;2023-04-19T04:47:19;12.88;;;7.68;;
52618;SDS011;38513;53.234;6.568;2023-04-19T04:49:45;12.48;;;7.50;;
52618;SDS011;38513;53.234;6.568;2023-04-19T04:52:11;12.32;;;7.15;;
52618;SDS011;38513;53.234;6.568;2023-04-19T04:54:38;12.70;;;7.60;;
52618;SDS011;38513;53.234;6.568;2023-04-19T04:57:07;13.20;;;7.30;;
52618;SDS011;38513;53.234;6.568;2023-04-19T04:59:33;10.65;;;7.07;;
52618;SDS011;38513;53.234;6.568;2023-04-19T05:02:00;12.02;;;7.10;;
52618;SDS011;38513;53.234;6.568;2023-04-19T05:04:26;11.82;;;7.10;;
52618;SDS011;38513;53.234;6.568;2023-04-19T05:06:52;10.52;;;6.80;;
52618;SDS011;38513;53.234;6.568;2023-04-19T05:09:21;10.20;;;6.60;;
52618;SDS011;38513;53.234;6.568;2023-04-19T05:11:47;11.18;;;6.55;;
52618;SDS011;38513;53.234;6.568;2023-04-19T05:14:13;10.32;;;6.18;;
52618;SDS011;38513;53.234;6.568;2023-04-19T05:16:39;10.47;;;6.20;;
52618;SDS011;38513;53.234;6.568;2023-04-19T05:19:05;11.43;;;5.65;;
52618;SDS011;38513;53.234;6.568;2023-04-19T05:21:32;9.90;;;5.30;;
52618;SDS011;38513;53.234;6.568;2023-04-19T05:23:58;11.07;;;5.23;;
52618;SDS011;38513;53.234;6.568;2023-04-19T05:26:24;10.90;;;5.30;;
52618;SDS011;38513;53.234;6.568;2023-04-19T05:28:51;8.90;;;4.70;;
52618;SDS011;38513;53.234;6.568;2023-04-19T05:31:17;9.65;;;4.70;;
52618;SDS011;38513;53.234;6.568;2023-04-19T05:33:45;8.98;;;4.60;;
52618;SDS011;38513;53.234;6.568;2023-04-19T05:36:11;7.68;;;4.15;;
52618;SDS011;38513;53.234;6.568;2023-04-19T05:38:37;10.30;;;4.38;;
52618;SDS011;38513;53.234;6.568;2023-04-19T05:41:04;8.32;;;4.20;;
52618;SDS011;38513;53.234;6.568;2023-04-19T05:43:30;9.32;;;5.03;;
52618;SDS011;38513;53.234;6.568;2023-04-19T05:45:56;9.75;;;4.72;;
52618;SDS011;38513;53.234;6.568;2023-04-19T05:48:26;9.20;;;5.03;;
52618;SDS011;38513;53.234;6.568;2023-04-19T05:50:52;9.35;;;4.57;;
52618;SDS011;38513;53.234;6.568;2023-04-19T05:53:20;9.15;;;5.07;;
52618;SDS011;38513;53.234;6.568;2023-04-19T05:55:46;8.25;;;5.00;;
52618;SDS011;38513;53.234;6.568;2023-04-19T05:58:14;8.80;;;4.60;;
52618;SDS011;38513;53.234;6.568;2023-04-19T06:00:41;8.40;;;4.97;;
52618;SDS011;38513;53.234;6.568;2023-04-19T06:03:10;8.98;;;5.00;;
52618;SDS011;38513;53.234;6.568;2023-04-19T06:05:36;10.25;;;4.68;;
52618;SDS011;38513;53.234;6.568;2023-04-19T06:08:04;10.23;;;5.40;;
52618;SDS011;38513;53.234;6.568;2023-04-19T06:10:31;9.57;;;4.93;;
52618;SDS011;38513;53.234;6.568;2023-04-19T06:12:57;9.25;;;5.07;;
52618;SDS011;38513;53.234;6.568;2023-04-19T06:15:23;8.95;;;4.68;;
52618;SDS011;38513;53.234;6.568;2023-04-19T06:17:50;8.70;;;4.35;;
52618;SDS011;38513;53.234;6.568;2023-04-19T06:20:16;8.70;;;4.75;;
52618;SDS011;38513;53.234;6.568;2023-04-19T06:22:45;13.37;;;5.37;;
52618;SDS011;38513;53.234;6.568;2023-04-19T06:25:11;9.90;;;5.03;;
52618;SDS011;38513;53.234;6.568;2023-04-19T06:27:37;10.27;;;4.72;;
52618;SDS011;38513;53.234;6.568;2023-04-19T06:30:07;8.52;;;4.68;;
52618;SDS011;38513;53.234;6.568;2023-04-19T06:32:33;9.07;;;4.82;;
52618;SDS011;38513;53.234;6.568;2023-04-19T06:34:59;8.68;;;4.63;;
52618;SDS011;38513;53.234;6.568;2023-04-19T06:37:25;8.02;;;4.28;;
52618;SDS011;38513;53.234;6.568;2023-04-19T06:39:52;8.53;;;4.50;;
52618;SDS011;38513;53.234;6.568;2023-04-19T06:42:18;7.57;;;3.97;;
52618;SDS011;38513;53.234;6.568;2023-04-19T06:44:45;8.70;;;4.30;;
52618;SDS011;38513;53.234;6.568;2023-04-19T06:47:11;7.38;;;4.18;;
52618;SDS011;38513;53.234;6.568;2023-04-19T06:49:45;8.75;;;4.00;;
52618;SDS011;38513;53.234;6.568;2023-04-19T06:52:11;8.07;;;3.20;;
52618;SDS011;38513;53.234;6.568;2023-04-19T06:54:37;6.95;;;3.00;;
52618;SDS011;38513;53.234;6.568;2023-04-19T06:57:03;6.22;;;2.85;;
52618;SDS011;38513;53.234;6.568;2023-04-19T06:59:29;6.63;;;2.75;;
52618;SDS011;38513;53.234;6.568;2023-04-19T07:01:56;6.03;;;2.50;;
52618;SDS011;38513;53.234;6.568;2023-04-19T07:04:22;7.53;;;2.88;;
52618;SDS011;38513;53.234;6.568;2023-04-19T07:06:51;5.93;;;2.55;;
52618;SDS011;38513;53.234;6.568;2023-04-19T07:09:18;6.47;;;2.97;;
52618;SDS011;38513;53.234;6.568;2023-04-19T07:11:44;7.90;;;3.30;;
52618;SDS011;38513;53.234;6.568;2023-04-19T07:14:11;6.90;;;3.03;;
52618;SDS011;38513;53.234;6.568;2023-04-19T07:16:38;8.52;;;3.60;;
52618;SDS011;38513;53.234;6.568;2023-04-19T07:19:07;7.78;;;3.33;;
52618;SDS011;38513;53.234;6.568;2023-04-19T07:21:33;7.53;;;2.78;;
52618;SDS011;38513;53.234;6.568;2023-04-19T07:23:59;7.18;;;2.80;;
52618;SDS011;38513;53.234;6.568;2023-04-19T07:26:26;6.22;;;2.40;;
52618;SDS011;38513;53.234;6.568;2023-04-19T07:28:52;6.18;;;2.28;;
52618;SDS011;38513;53.234;6.568;2023-04-19T07:31:21;7.00;;;2.60;;
52618;SDS011;38513;53.234;6.568;2023-04-19T07:33:49;5.20;;;2.20;;
52618;SDS011;38513;53.234;6.568;2023-04-19T07:36:16;7.72;;;2.00;;
52618;SDS011;38513;53.234;6.568;2023-04-19T07:38:42;6.00;;;2.15;;
52618;SDS011;38513;53.234;6.568;2023-04-19T07:41:09;6.22;;;2.10;;
52618;SDS011;38513;53.234;6.568;2023-04-19T07:43:35;5.35;;;2.10;;
52618;SDS011;38513;53.234;6.568;2023-04-19T07:46:07;6.30;;;1.83;;
52618;SDS011;38513;53.234;6.568;2023-04-19T07:48:37;6.93;;;2.97;;
52618;SDS011;38513;53.234;6.568;2023-04-19T07:53:36;5.57;;;1.90;;
52618;SDS011;38513;53.234;6.568;2023-04-19T07:56:02;5.80;;;2.10;;
52618;SDS011;38513;53.234;6.568;2023-04-19T07:58:28;8.05;;;1.90;;
52618;SDS011;38513;53.234;6.568;2023-04-19T08:00:54;5.82;;;1.88;;
52618;SDS011;38513;53.234;6.568;2023-04-19T08:03:21;5.78;;;2.00;;
52618;SDS011;38513;53.234;6.568;2023-04-19T08:05:47;4.80;;;1.80;;
52618;SDS011;38513;53.234;6.568;2023-04-19T08:08:13;6.25;;;1.75;;
52618;SDS011;38513;53.234;6.568;2023-04-19T08:10:39;5.28;;;1.90;;
52618;SDS011;38513;53.234;6.568;2023-04-19T08:13:05;7.45;;;1.90;;
52618;SDS011;38513;53.234;6.568;2023-04-19T08:15:33;6.53;;;2.00;;
52618;SDS011;38513;53.234;6.568;2023-04-19T08:17:59;5.30;;;2.00;;
52618;SDS011;38513;53.234;6.568;2023-04-19T08:20:25;6.25;;;2.20;;
52618;SDS011;38513;53.234;6.568;2023-04-19T08:22:51;4.60;;;1.70;;
52618;SDS011;38513;53.234;6.568;2023-04-19T08:25:18;4.60;;;1.73;;
52618;SDS011;38513;53.234;6.568;2023-04-19T08:27:45;6.30;;;1.80;;
52618;SDS011;38513;53.234;6.568;2023-04-19T08:30:11;5.78;;;1.83;;
52618;SDS011;38513;53.234;6.568;2023-04-19T08:32:37;5.35;;;1.73;;
52618;SDS011;38513;53.234;6.568;2023-04-19T08:35:07;4.85;;;1.60;;
52618;SDS011;38513;53.234;6.568;2023-04-19T08:37:33;5.03;;;1.90;;
52618;SDS011;38513;53.234;6.568;2023-04-19T08:40:03;5.20;;;1.90;;
52618;SDS011;38513;53.234;6.568;2023-04-19T08:42:30;5.47;;;2.00;;
52618;SDS011;38513;53.234;6.568;2023-04-19T08:44:59;4.85;;;2.00;;
52618;SDS011;38513;53.234;6.568;2023-04-19T08:47:30;5.60;;;2.08;;
52618;SDS011;38513;53.234;6.568;2023-04-19T08:49:57;4.75;;;1.90;;
52618;SDS011;38513;53.234;6.568;2023-04-19T08:52:25;5.95;;;1.98;;
52618;SDS011;38513;53.234;6.568;2023-04-19T08:55:01;9.43;;;5.50;;
52618;SDS011;38513;53.234;6.568;2023-04-19T08:57:29;5.22;;;1.85;;
52618;SDS011;38513;53.234;6.568;2023-04-19T08:59:56;5.57;;;2.00;;
52618;SDS011;38513;53.234;6.568;2023-04-19T09:02:22;4.65;;;1.90;;
52618;SDS011;38513;53.234;6.568;2023-04-19T09:04:48;5.28;;;1.77;;
52618;SDS011;38513;53.234;6.568;2023-04-19T09:07:24;4.93;;;1.70;;
52618;SDS011;38513;53.234;6.568;2023-04-19T09:10:03;4.55;;;1.55;;
52618;SDS011;38513;53.234;6.568;2023-04-19T09:12:29;5.20;;;1.92;;
52618;SDS011;38513;53.234;6.568;2023-04-19T09:14:56;5.03;;;1.88;;
52618;SDS011;38513;53.234;6.568;2023-04-19T09:17:22;4.60;;;1.70;;
52618;SDS011;38513;53.234;6.568;2023-04-19T09:19:48;6.40;;;1.75;;
52618;SDS011;38513;53.234;6.568;2023-04-19T09:22:15;4.35;;;1.83;;
52618;SDS011;38513;53.234;6.568;2023-04-19T09:24:41;4.45;;;1.77;;
52618;SDS011;38513;53.234;6.568;2023-04-19T09:27:07;4.18;;;1.75;;
52618;SDS011;38513;53.234;6.568;2023-04-19T09:29:36;5.47;;;1.70;;
52618;SDS011;38513;53.234;6.568;2023-04-19T09:32:02;4.82;;;1.60;;
52618;SDS011;38513;53.234;6.568;2023-04-19T09:34:28;4.72;;;1.80;;
52618;SDS011;38513;53.234;6.568;2023-04-19T09:37:10;6.97;;;1.67;;
52618;SDS011;38513;53.234;6.568;2023-04-19T09:39:36;4.68;;;1.60;;
52618;SDS011;38513;53.234;6.568;2023-04-19T09:42:02;6.77;;;1.40;;
52618;SDS011;38513;53.234;6.568;2023-04-19T09:44:29;5.45;;;1.60;;
52618;SDS011;38513;53.234;6.568;2023-04-19T09:46:57;5.93;;;1.90;;
52618;SDS011;38513;53.234;6.568;2023-04-19T09:49:23;4.72;;;1.42;;
52618;SDS011;38513;53.234;6.568;2023-04-19T09:51:53;5.78;;;1.67;;
52618;SDS011;38513;53.234;6.568;2023-04-19T09:54:20;5.18;;;1.50;;
52618;SDS011;38513;53.234;6.568;2023-04-19T09:56:48;6.80;;;1.40;;
52618;SDS011;38513;53.234;6.568;2023-04-19T09:59:14;5.55;;;1.58;;
52618;SDS011;38513;53.234;6.568;2023-04-19T10:01:44;4.38;;;1.40;;
52618;SDS011;38513;53.234;6.568;2023-04-19T10:04:11;4.78;;;1.60;;
52618;SDS011;38513;53.234;6.568;2023-04-19T10:06:38;3.85;;;1.35;;
52618;SDS011;38513;53.234;6.568;2023-04-19T10:09:08;4.00;;;1.40;;
52618;SDS011;38513;53.234;6.568;2023-04-19T10:11:35;3.75;;;1.30;;
52618;SDS011;38513;53.234;6.568;2023-04-19T10:14:05;5.90;;;1.40;;
52618;SDS011;38513;53.234;6.568;2023-04-19T10:16:32;4.32;;;1.10;;
52618;SDS011;38513;53.234;6.568;2023-04-19T10:18:58;3.60;;;1.20;;
52618;SDS011;38513;53.234;6.568;2023-04-19T10:21:26;3.40;;;1.30;;
52618;SDS011;38513;53.234;6.568;2023-04-19T10:23:55;4.05;;;1.38;;
52618;SDS011;38513;53.234;6.568;2023-04-19T10:26:22;4.22;;;1.30;;
52618;SDS011;38513;53.234;6.568;2023-04-19T10:28:48;3.60;;;1.33;;
52618;SDS011;38513;53.234;6.568;2023-04-19T10:31:15;4.18;;;1.25;;
52618;SDS011;38513;53.234;6.568;2023-04-19T10:33:46;3.83;;;1.23;;
52618;SDS011;38513;53.234;6.568;2023-04-19T10:36:15;4.63;;;1.20;;
52618;SDS011;38513;53.234;6.568;2023-04-19T10:38:48;4.82;;;1.30;;
52618;SDS011;38513;53.234;6.568;2023-04-19T10:41:54;3.63;;;1.30;;
52618;SDS011;38513;53.234;6.568;2023-04-19T10:44:08;4.07;;;1.40;;
52618;SDS011;38513;53.234;6.568;2023-04-19T10:46:35;10.35;;;3.30;;
52618;SDS011;38513;53.234;6.568;2023-04-19T10:49:03;4.90;;;1.50;;
52618;SDS011;38513;53.234;6.568;2023-04-19T10:51:38;3.17;;;1.20;;
52618;SDS011;38513;53.234;6.568;2023-04-19T10:54:30;4.97;;;1.10;;
52618;SDS011;38513;53.234;6.568;2023-04-19T10:59:24;5.37;;;1.43;;
52618;SDS011;38513;53.234;6.568;2023-04-19T11:01:52;5.35;;;1.40;;
52618;SDS011;38513;53.234;6.568;2023-04-19T11:04:22;4.93;;;1.30;;
52618;SDS011;38513;53.234;6.568;2023-04-19T11:09:33;4.25;;;1.20;;
52618;SDS011;38513;53.234;6.568;2023-04-19T11:12:02;4.23;;;1.20;;
52618;SDS011;38513;53.234;6.568;2023-04-19T11:14:50;5.75;;;1.27;;
52618;SDS011;38513;53.234;6.568;2023-04-19T11:17:21;4.60;;;1.30;;
52618;SDS011;38513;53.234;6.568;2023-04-19T11:22:28;4.07;;;1.40;;
52618;SDS011;38513;53.234;6.568;2023-04-19T11:25:08;4.95;;;1.35;;
52618;SDS011;38513;53.234;6.568;2023-04-19T11:27:35;4.45;;;1.52;;
52618;SDS011;38513;53.234;6.568;2023-04-19T11:30:02;5.50;;;1.65;;
52618;SDS011;38513;53.234;6.568;2023-04-19T11:32:29;3.47;;;1.30;;
52618;SDS011;38513;53.234;6.568;2023-04-19T11:34:55;4.68;;;1.48;;
52618;SDS011;38513;53.234;6.568;2023-04-19T11:37:22;5.28;;;1.50;;
52618;SDS011;38513;53.234;6.568;2023-04-19T11:39:51;4.82;;;1.58;;
52618;SDS011;38513;53.234;6.568;2023-04-19T11:42:18;5.50;;;1.70;;
52618;SDS011;38513;53.234;6.568;2023-04-19T11:44:56;6.13;;;1.60;;
52618;SDS011;38513;53.234;6.568;2023-04-19T11:47:26;5.88;;;1.95;;
52618;SDS011;38513;53.234;6.568;2023-04-19T11:49:56;6.18;;;1.90;;
52618;SDS011;38513;53.234;6.568;2023-04-19T11:52:23;5.70;;;1.90;;
52618;SDS011;38513;53.234;6.568;2023-04-19T11:54:52;4.57;;;1.73;;
52618;SDS011;38513;53.234;6.568;2023-04-19T11:57:31;5.57;;;2.03;;
52618;SDS011;38513;53.234;6.568;2023-04-19T12:00:04;4.75;;;1.90;;
52618;SDS011;38513;53.234;6.568;2023-04-19T12:02:42;5.28;;;1.75;;
52618;SDS011;38513;53.234;6.568;2023-04-19T12:05:13;6.05;;;2.50;;
52618;SDS011;38513;53.234;6.568;2023-04-19T12:08:04;6.78;;;2.40;;
52618;SDS011;38513;53.234;6.568;2023-04-19T12:10:34;5.05;;;2.10;;
52618;SDS011;38513;53.234;6.568;2023-04-19T12:13:00;5.45;;;2.10;;
52618;SDS011;38513;53.234;6.568;2023-04-19T12:16:01;6.50;;;2.50;;
52618;SDS011;38513;53.234;6.568;2023-04-19T12:18:46;6.00;;;2.50;;
52618;SDS011;38513;53.234;6.568;2023-04-19T12:21:26;5.85;;;2.30;;
52618;SDS011;38513;53.234;6.568;2023-04-19T12:23:54;5.37;;;2.40;;
52618;SDS011;38513;53.234;6.568;2023-04-19T12:26:20;9.80;;;2.88;;
52618;SDS011;38513;53.234;6.568;2023-04-19T12:28:46;6.10;;;2.72;;
52618;SDS011;38513;53.234;6.568;2023-04-19T12:31:12;6.40;;;2.90;;
52618;SDS011;38513;53.234;6.568;2023-04-19T12:33:39;5.90;;;2.63;;
52618;SDS011;38513;53.234;6.568;2023-04-19T12:36:05;6.20;;;2.72;;
52618;SDS011;38513;53.234;6.568;2023-04-19T12:38:31;8.33;;;3.23;;
52618;SDS011;38513;53.234;6.568;2023-04-19T12:40:57;6.93;;;2.92;;
52618;SDS011;38513;53.234;6.568;2023-04-19T12:43:23;8.82;;;3.08;;
52618;SDS011;38513;53.234;6.568;2023-04-19T12:45:54;7.20;;;3.05;;
52618;SDS011;38513;53.234;6.568;2023-04-19T12:48:22;10.70;;;3.70;;
52618;SDS011;38513;53.234;6.568;2023-04-19T12:50:49;8.18;;;3.63;;
52618;SDS011;38513;53.234;6.568;2023-04-19T12:53:15;9.88;;;3.78;;
52618;SDS011;38513;53.234;6.568;2023-04-19T12:55:44;9.18;;;3.83;;
52618;SDS011;38513;53.234;6.568;2023-04-19T12:58:17;9.63;;;4.20;;
52618;SDS011;38513;53.234;6.568;2023-04-19T13:00:45;8.75;;;3.88;;
52618;SDS011;38513;53.234;6.568;2023-04-19T13:03:11;11.50;;;4.40;;
52618;SDS011;38513;53.234;6.568;2023-04-19T13:05:41;10.13;;;4.15;;
52618;SDS011;38513;53.234;6.568;2023-04-19T13:08:07;11.87;;;5.90;;
52618;SDS011;38513;53.234;6.568;2023-04-19T13:10:36;9.57;;;4.05;;
52618;SDS011;38513;53.234;6.568;2023-04-19T13:13:03;8.68;;;4.15;;
52618;SDS011;38513;53.234;6.568;2023-04-19T13:15:29;10.00;;;4.30;;
52618;SDS011;38513;53.234;6.568;2023-04-19T13:17:55;8.63;;;4.05;;
52618;SDS011;38513;53.234;6.568;2023-04-19T13:20:21;8.82;;;4.57;;
52618;SDS011;38513;53.234;6.568;2023-04-19T13:22:51;8.05;;;4.25;;
52618;SDS011;38513;53.234;6.568;2023-04-19T13:25:17;9.63;;;4.60;;
52618;SDS011;38513;53.234;6.568;2023-04-19T13:27:43;8.27;;;4.50;;
52618;SDS011;38513;53.234;6.568;2023-04-19T13:30:11;11.02;;;4.70;;
52618;SDS011;38513;53.234;6.568;2023-04-19T13:32:37;9.05;;;4.22;;
52618;SDS011;38513;53.234;6.568;2023-04-19T13:35:03;9.45;;;5.07;;
52618;SDS011;38513;53.234;6.568;2023-04-19T13:37:32;8.75;;;3.85;;
52618;SDS011;38513;53.234;6.568;2023-04-19T13:40:01;8.25;;;3.90;;
52618;SDS011;38513;53.234;6.568;2023-04-19T13:42:29;10.03;;;4.23;;
52618;SDS011;38513;53.234;6.568;2023-04-19T13:44:55;10.18;;;4.53;;
52618;SDS011;38513;53.234;6.568;2023-04-19T13:47:21;10.57;;;5.00;;
52618;SDS011;38513;53.234;6.568;2023-04-19T13:49:47;9.90;;;6.38;;
52618;SDS011;38513;53.234;6.568;2023-04-19T13:52:19;10.93;;;4.83;;
52618;SDS011;38513;53.234;6.568;2023-04-19T13:54:46;9.93;;;4.28;;
52618;SDS011;38513;53.234;6.568;2023-04-19T13:57:12;10.98;;;4.78;;
52618;SDS011;38513;53.234;6.568;2023-04-19T13:59:41;9.60;;;4.00;;
52618;SDS011;38513;53.234;6.568;2023-04-19T14:02:07;9.70;;;4.30;;
52618;SDS011;38513;53.234;6.568;2023-04-19T14:04:33;9.67;;;4.30;;
52618;SDS011;38513;53.234;6.568;2023-04-19T14:07:00;10.25;;;4.70;;
52618;SDS011;38513;53.234;6.568;2023-04-19T14:09:26;10.32;;;4.82;;
52618;SDS011;38513;53.234;6.568;2023-04-19T14:11:52;9.25;;;4.88;;
52618;SDS011;38513;53.234;6.568;2023-04-19T14:14:18;9.10;;;4.40;;
52618;SDS011;38513;53.234;6.568;2023-04-19T14:16:49;11.70;;;4.80;;
52618;SDS011;38513;53.234;6.568;2023-04-19T14:19:15;8.90;;;4.60;;
52618;SDS011;38513;53.234;6.568;2023-04-19T14:21:42;10.20;;;4.55;;
52618;SDS011;38513;53.234;6.568;2023-04-19T14:24:11;11.15;;;4.50;;
52618;SDS011;38513;53.234;6.568;2023-04-19T14:26:37;10.55;;;4.78;;
52618;SDS011;38513;53.234;6.568;2023-04-19T14:29:04;9.20;;;4.22;;
52618;SDS011;38513;53.234;6.568;2023-04-19T14:31:33;7.93;;;3.95;;
52618;SDS011;38513;53.234;6.568;2023-04-19T14:33:59;9.57;;;3.95;;
52618;SDS011;38513;53.234;6.568;2023-04-19T14:36:28;7.55;;;3.75;;
52618;SDS011;38513;53.234;6.568;2023-04-19T14:38:54;8.45;;;3.72;;
52618;SDS011;38513;53.234;6.568;2023-04-19T14:41:26;8.32;;;3.85;;
52618;SDS011;38513;53.234;6.568;2023-04-19T14:46:51;9.25;;;3.60;;
52618;SDS011;38513;53.234;6.568;2023-04-19T14:49:17;8.00;;;3.38;;
52618;SDS011;38513;53.234;6.568;2023-04-19T14:51:43;8.50;;;3.40;;
52618;SDS011;38513;53.234;6.568;2023-04-19T14:54:12;8.13;;;3.20;;
52618;SDS011;38513;53.234;6.568;2023-04-19T14:56:48;7.95;;;3.45;;